Time;durP1;ratioP1;P1;durP2;ratioP2;P2;SDS_P1;SDS_P2;PMS_P1;PMS_P2;Temp;Humidity;BMP_temperature;BMP_pressure;BME280_temperature;BME280_humidity;BME280_pressure;Samples;Min_cycle;Max_cycle;Signal;HPM_P1;HPM_P2
2023/07/12 00:00:32;;;;;;;6.40;4.70;;;;;;;19.69;87.94;99781.73;178241;1264;45144;-82
2023/07/12 00:04:55;;;;;;;5.00;3.80;;;;;;;19.74;87.21;99772.33;178478;1267;60516;-82
2023/07/12 00:08:58;;;;;;;6.50;3.40;;;;;;;19.78;86.48;99768.91;177903;1265;46011;-82
2023/07/12 00:13:02;;;;;;;4.20;3.70;;;;;;;19.78;86.06;99763.10;177451;1265;46260;-82
2023/07/12 00:17:08;;;;;;;7.90;3.70;;;;;;;19.72;86.14;99758.98;177719;1265;50082;-82
2023/07/12 00:21:12;;;;;;;5.80;3.20;;;;;;;19.67;85.87;99761.01;178252;1264;44734;-83
2023/07/12 00:25:15;;;;;;;7.00;3.70;;;;;;;19.69;85.78;99762.09;178313;1265;57730;-83
2023/07/12 00:29:19;;;;;;;3.90;3.00;;;;;;;19.68;85.90;99760.51;177688;1265;46135;-83
2023/07/12 00:33:23;;;;;;;4.70;3.60;;;;;;;19.63;85.84;99760.27;178131;1265;46468;-82
2023/07/12 00:37:26;;;;;;;5.30;3.60;;;;;;;19.58;85.89;99754.20;177622;1265;46076;-83
2023/07/12 00:41:47;;;;;;;6.10;3.70;;;;;;;19.58;85.90;99752.61;178449;1265;46050;-83
2023/07/12 00:45:51;;;;;;;4.10;3.40;;;;;;;19.59;85.70;99746.30;178878;1264;58407;-83
2023/07/12 00:49:54;;;;;;;4.50;3.90;;;;;;;19.61;85.56;99740.95;178705;1263;45403;-83
2023/07/12 00:53:58;;;;;;;4.40;3.70;;;;;;;19.62;85.40;99737.52;179815;1264;45931;-83
2023/07/12 00:58:01;;;;;;;5.80;4.20;;;;;;;19.63;85.39;99733.73;178210;1265;46213;-83
2023/07/12 01:02:05;;;;;;;5.00;3.50;;;;;;;19.66;85.43;99721.69;177730;1266;46013;-82
2023/07/12 01:06:13;;;;;;;7.50;4.00;;;;;;;19.67;85.52;99705.42;177818;1264;58217;-82
2023/07/12 01:10:16;;;;;;;4.50;3.40;;;;;;;19.67;85.51;99697.96;177952;1268;46404;-82
2023/07/12 01:14:20;;;;;;;4.10;2.90;;;;;;;19.65;86.13;99688.05;178620;1267;44269;-83
2023/07/12 01:18:23;;;;;;;7.40;4.20;;;;;;;19.60;86.85;99683.80;178705;1263;46175;-83
2023/07/12 01:22:26;;;;;;;5.60;3.70;;;;;;;19.55;87.62;99671.71;178679;1265;46019;-83
2023/07/12 01:26:34;;;;;;;11.50;3.70;;;;;;;19.48;88.36;99670.77;177638;1262;58278;-85
2023/07/12 01:30:39;;;;;;;6.40;3.50;;;;;;;19.42;88.72;99658.61;177224;1262;46182;-86
2023/07/12 01:34:42;;;;;;;6.80;4.20;;;;;;;19.37;89.26;99652.12;176978;1262;46070;-86
2023/07/12 01:38:48;;;;;;;5.30;3.50;;;;;;;19.32;89.55;99650.02;176908;1262;46006;-86
2023/07/12 01:42:51;;;;;;;4.50;3.00;;;;;;;19.26;89.78;99644.83;176957;1264;46114;-86
2023/07/12 01:46:55;;;;;;;5.40;3.30;;;;;;;19.28;89.92;99644.94;176717;1262;57942;-86
2023/07/12 01:50:59;;;;;;;6.00;3.00;;;;;;;19.27;90.20;99639.33;176478;1262;45998;-86
2023/07/12 01:55:02;;;;;;;6.20;3.70;;;;;;;19.30;89.80;99634.11;176511;1264;46028;-86
2023/07/12 01:59:05;;;;;;;3.70;2.80;;;;;;;19.34;89.86;99625.92;176611;1262;46452;-86
2023/07/12 02:03:08;;;;;;;5.40;4.00;;;;;;;19.35;90.10;99619.74;176621;1262;46119;-87
2023/07/12 02:07:11;;;;;;;7.00;3.50;;;;;;;19.34;90.03;99617.55;176572;1263;57278;-86
2023/07/12 02:11:15;;;;;;;5.00;3.10;;;;;;;19.32;90.37;99608.36;176549;1262;46223;-85
2023/07/12 02:15:19;;;;;;;4.60;3.20;;;;;;;19.33;90.46;99602.15;176654;1265;44421;-86
2023/07/12 02:19:22;;;;;;;6.30;3.70;;;;;;;19.34;90.46;99594.27;176666;1262;46014;-85
2023/07/12 02:23:25;;;;;;;4.30;3.50;;;;;;;19.29;91.20;99585.88;176442;1262;45995;-85
2023/07/12 02:27:29;;;;;;;4.10;3.30;;;;;;;19.20;92.10;99587.73;176563;1266;58057;-86
2023/07/12 02:31:32;;;;;;;6.10;2.90;;;;;;;19.15;92.24;99581.37;176582;1265;45987;-85
2023/07/12 02:35:40;;;;;;;5.20;3.70;;;;;;;19.13;92.61;99585.20;176661;1262;46664;-84
2023/07/12 02:39:44;;;;;;;4.50;3.20;;;;;;;19.16;92.45;99580.21;176581;1262;46316;-86
2023/07/12 02:43:47;;;;;;;6.70;4.00;;;;;;;19.21;92.15;99573.27;176781;1262;46062;-85
2023/07/12 02:47:51;;;;;;;3.90;3.10;;;;;;;19.21;92.26;99560.98;176545;1262;60029;-86
2023/07/12 02:51:54;;;;;;;5.40;3.60;;;;;;;19.21;92.39;99553.80;177472;1262;46085;-84
2023/07/12 02:55:57;;;;;;;4.90;3.10;;;;;;;19.19;92.94;99551.90;177242;1262;46065;-84
2023/07/12 03:00:01;;;;;;;3.80;3.30;;;;;;;19.19;92.96;99543.85;176881;1262;46036;-85
2023/07/12 03:04:06;;;;;;;6.40;3.30;;;;;;;19.17;93.10;99536.84;176466;1262;46001;-86
2023/07/12 03:08:09;;;;;;;4.70;3.20;;;;;;;19.20;93.33;99530.70;176364;1262;59125;-86
2023/07/12 03:12:12;;;;;;;4.40;2.60;;;;;;;19.19;93.60;99514.69;176921;1262;45993;-85
2023/07/12 03:16:15;;;;;;;6.50;3.60;;;;;;;19.20;93.70;99509.14;176598;1262;46056;-85
2023/07/12 03:20:19;;;;;;;5.80;3.40;;;;;;;19.23;93.47;99500.10;176498;1262;46159;-87
2023/07/12 03:24:22;;;;;;;7.40;3.00;;;;;;;19.29;93.20;99495.61;177711;1262;46219;-87
2023/07/12 03:28:26;;;;;;;5.20;3.90;;;;;;;19.34;92.78;99497.29;177115;1265;59558;-86
2023/07/12 03:32:29;;;;;;;5.60;3.20;;;;;;;19.39;93.01;99491.65;176919;1264;45899;-87
2023/07/12 03:36:32;;;;;;;5.30;3.40;;;;;;;19.45;92.59;99487.77;177362;1262;46186;-87
2023/07/12 03:40:35;;;;;;;6.50;4.30;;;;;;;19.53;92.17;99484.02;177512;1263;45908;-87
2023/07/12 03:44:38;;;;;;;10.30;3.90;;;;;;;19.61;92.19;99487.02;177433;1262;45982;-87
2023/07/12 03:48:42;;;;;;;5.90;3.90;;;;;;;19.68;91.81;99487.70;177177;1262;59605;-87
2023/07/12 03:52:45;;;;;;;5.10;4.00;;;;;;;19.70;91.99;99492.39;176706;1262;45969;-87
2023/07/12 03:56:48;;;;;;;6.90;4.50;;;;;;;19.79;91.97;99507.55;177381;1267;45956;-87
2023/07/12 04:00:53;;;;;;;6.90;4.00;;;;;;;19.90;92.05;99510.15;176817;1262;46113;-88
2023/07/12 04:04:56;;;;;;;6.20;3.90;;;;;;;19.97;92.15;99504.48;176679;1267;46049;-87
2023/07/12 04:09:01;;;;;;;5.80;4.50;;;;;;;20.02;92.30;99502.90;176492;1263;57282;-87
2023/07/12 04:13:04;;;;;;;5.90;3.80;;;;;;;20.07;92.50;99501.79;176574;1262;46165;-87
2023/07/12 04:17:09;;;;;;;6.60;4.10;;;;;;;20.13;92.59;99501.13;177206;1262;46126;-88
2023/07/12 04:21:12;;;;;;;6.10;4.30;;;;;;;20.27;91.96;99506.42;177013;1262;46157;-89
2023/07/12 04:25:17;;;;;;;10.80;5.90;;;;;;;20.42;91.20;99515.27;177806;1265;46085;-88
2023/07/12 04:29:20;;;;;;;9.30;4.60;;;;;;;20.55;90.68;99536.15;176421;1262;59749;-87
2023/07/12 04:33:23;;;;;;;4.80;4.00;;;;;;;20.67;90.61;99535.85;176710;1262;46105;-87
2023/07/12 04:37:26;;;;;;;5.50;4.60;;;;;;;20.81;90.07;99541.32;176547;1262;46022;-88
2023/07/12 04:41:29;;;;;;;5.20;4.30;;;;;;;20.88;90.18;99544.31;177001;1262;44514;-87
2023/07/12 04:45:33;;;;;;;4.60;4.20;;;;;;;20.90;90.56;99537.70;177491;1262;46296;-83
2023/07/12 04:49:37;;;;;;;8.20;4.90;;;;;;;20.94;90.62;99538.21;178539;1262;59203;-83
2023/07/12 04:53:42;;;;;;;6.20;5.30;;;;;;;21.06;89.45;99543.30;178517;1265;46044;-83
2023/07/12 04:57:45;;;;;;;6.60;4.10;;;;;;;21.22;89.10;99546.27;178390;1262;46004;-83
2023/07/12 05:01:49;;;;;;;6.80;3.90;;;;;;;21.37;88.11;99546.42;178725;1262;46092;-83
2023/07/12 05:05:52;;;;;;;19.10;7.30;;;;;;;21.54;87.72;99546.43;178165;1262;45977;-83
2023/07/12 05:09:55;;;;;;;7.90;5.60;;;;;;;21.73;87.18;99549.39;178728;1262;58253;-83
2023/07/12 05:13:58;;;;;;;6.40;4.70;;;;;;;21.90;86.91;99545.74;180364;1262;45989;-83
2023/07/12 05:18:02;;;;;;;9.60;4.90;;;;;;;22.06;87.23;99536.42;179574;1262;43955;-83
2023/07/12 05:22:06;;;;;;;7.00;4.30;;;;;;;22.24;86.77;99530.40;179103;1265;46048;-83
2023/07/12 05:26:09;;;;;;;6.90;5.00;;;;;;;22.36;87.73;99523.50;178599;1262;46122;-83
2023/07/12 05:30:14;;;;;;;6.20;5.10;;;;;;;22.56;87.52;99519.81;178509;1262;58845;-84
2023/07/12 05:34:17;;;;;;;9.00;5.00;;;;;;;22.75;88.03;99524.45;178574;1264;45880;-83
2023/07/12 05:38:21;;;;;;;11.10;4.90;;;;;;;22.98;86.99;99523.66;178771;1265;46108;-84
2023/07/12 05:42:25;;;;;;;8.90;4.80;;;;;;;23.20;86.73;99518.80;178747;1262;46014;-83
2023/07/12 05:46:29;;;;;;;9.20;6.20;;;;;;;23.44;86.64;99521.48;179863;1262;45995;-83
2023/07/12 05:50:33;;;;;;;7.90;5.70;;;;;;;23.67;86.53;99523.05;178917;1262;59560;-88
2023/07/12 05:54:41;;;;;;;8.60;5.70;;;;;;;23.87;85.01;99526.52;178034;1262;46204;-88
2023/07/12 05:58:49;;;;;;;6.50;5.10;;;;;;;24.05;85.01;99519.23;177499;1262;45872;-88
2023/07/12 06:03:21;;;;;;;7.90;6.00;;;;;;;24.29;84.13;99510.61;178077;1262;46081;-88
2023/07/12 06:07:31;;;;;;;6.00;5.30;;;;;;;24.48;82.35;99503.12;179571;1262;45241;-89
2023/07/12 06:11:40;;;;;;;8.20;5.40;;;;;;;24.61;80.91;99493.30;178146;1262;59242;-86
2023/07/12 06:15:43;;;;;;;8.20;5.20;;;;;;;24.77;80.48;99484.12;177323;1262;46043;-88
2023/07/12 06:19:47;;;;;;;7.00;5.00;;;;;;;24.96;80.34;99480.03;176942;1262;46073;-87
2023/07/12 06:23:50;;;;;;;8.80;5.40;;;;;;;25.18;79.96;99474.13;177646;1267;46086;-87
2023/07/12 06:27:53;;;;;;;10.40;6.40;;;;;;;25.36;77.85;99472.56;178022;1262;45996;-87
2023/07/12 06:31:57;;;;;;;8.60;6.30;;;;;;;25.52;78.06;99463.09;177320;1262;59365;-87
2023/07/12 06:36:00;;;;;;;12.80;6.40;;;;;;;25.68;76.62;99447.39;177666;1262;46036;-88
2023/07/12 06:40:05;;;;;;;8.00;6.10;;;;;;;25.84;75.73;99448.31;177352;1264;46096;-88
2023/07/12 06:44:08;;;;;;;6.00;4.80;;;;;;;26.04;75.35;99444.58;177432;1262;45991;-88
2023/07/12 06:48:11;;;;;;;9.50;5.70;;;;;;;26.22;74.33;99450.98;177372;1262;46043;-88
2023/07/12 06:52:15;;;;;;;8.50;5.50;;;;;;;26.38;74.20;99467.25;179731;1260;58106;-84
2023/07/12 06:56:19;;;;;;;6.90;5.10;;;;;;;26.47;73.85;99477.12;179569;1260;45873;-83
2023/07/12 07:00:22;;;;;;;8.80;4.90;;;;;;;26.62;73.17;99483.13;179641;1262;46080;-83
2023/07/12 07:04:26;;;;;;;6.00;4.90;;;;;;;26.71;72.90;99492.16;179752;1261;45966;-84
2023/07/12 07:08:29;;;;;;;7.10;4.90;;;;;;;26.69;73.18;99514.58;179648;1260;44784;-83
2023/07/12 07:12:33;;;;;;;6.40;5.00;;;;;;;26.64;73.87;99524.05;179786;1260;59515;-83
2023/07/12 07:16:37;;;;;;;8.50;6.70;;;;;;;26.48;73.85;99538.38;179712;1260;46176;-83
2023/07/12 07:20:41;;;;;;;7.70;6.00;;;;;;;26.20;74.86;99550.64;179790;1260;281386;-83
2023/07/12 07:24:48;;;;;;;5.20;4.70;;;;;;;26.00;76.46;99548.92;179563;1260;45359;-83
2023/07/12 07:28:51;;;;;;;14.70;6.40;;;;;;;25.82;78.17;99554.40;179829;1260;44515;-83
2023/07/12 07:32:55;;;;;;;15.10;6.90;;;;;;;25.72;78.75;99543.54;179580;1262;59477;-83
2023/07/12 07:36:59;;;;;;;13.50;6.60;;;;;;;25.68;78.85;99538.89;179413;1261;46010;-84
2023/07/12 07:41:09;;;;;;;26.10;8.90;;;;;;;25.69;79.64;99536.02;179495;1260;43998;-83
2023/07/12 07:45:12;;;;;;;34.30;10.80;;;;;;;25.69;80.50;99542.35;179526;1260;46011;-83
2023/07/12 07:49:16;;;;;;;18.70;7.00;;;;;;;25.63;82.13;99543.98;179710;1261;47519;-83
2023/07/12 07:53:20;;;;;;;15.40;7.90;;;;;;;25.49;83.57;99571.63;179409;1258;59416;-88
2023/07/12 07:57:24;;;;;;;21.20;7.40;;;;;;;25.41;83.52;99580.66;177855;1262;45886;-88
2023/07/12 08:01:27;;;;;;;15.70;7.40;;;;;;;25.44;84.50;99580.80;177884;1263;45870;-88
2023/07/12 08:05:31;;;;;;;15.50;6.60;;;;;;;25.50;86.86;99590.95;177554;1262;46532;-88
2023/07/12 08:09:35;;;;;;;12.00;7.50;;;;;;;25.60;89.52;99606.65;177816;1267;46001;-87
2023/07/12 08:13:38;;;;;;;9.60;6.40;;;;;;;25.67;89.34;99608.16;178318;1262;60146;-88
2023/07/12 08:17:43;;;;;;;7.60;6.10;;;;;;;25.70;90.63;99609.52;177784;1262;46173;-88
2023/07/12 08:21:47;;;;;;;25.30;8.50;;;;;;;25.73;90.16;99610.33;177506;1265;46036;-88
2023/07/12 08:25:52;;;;;;;10.80;7.50;;;;;;;25.80;87.35;99613.75;177732;1262;45995;-88
2023/07/12 08:29:58;;;;;;;;;;;;;;;25.79;84.50;99620.27;178120;1262;44634;-88
2023/07/12 08:34:02;;;;;;;12.90;6.90;;;;;;;25.73;84.10;99627.73;177675;1262;58004;-88
2023/07/12 08:38:05;;;;;;;9.10;7.60;;;;;;;25.58;84.05;99621.16;177089;1262;46550;-88
2023/07/12 08:42:19;;;;;;;9.60;7.10;;;;;;;25.44;86.75;99611.64;177336;1262;44735;-88
2023/07/12 08:46:30;;;;;;;16.40;8.60;;;;;;;25.49;89.71;99605.39;177491;1266;44629;-88
2023/07/12 08:50:40;;;;;;;89.90;17.00;;;;;;;25.66;91.16;99596.04;178580;1262;46098;-88
2023/07/12 08:54:44;;;;;;;16.10;8.80;;;;;;;25.81;90.57;99593.45;177261;1262;58227;-88
2023/07/12 08:58:50;;;;;;;8.90;6.60;;;;;;;25.98;87.48;99583.62;178803;1269;46001;-83
2023/07/12 09:02:54;;;;;;;26.10;10.30;;;;;;;26.25;81.64;99571.61;179295;1264;44158;-83
2023/07/12 09:07:02;;;;;;;6.70;5.60;;;;;;;26.55;81.80;99575.23;179345;1264;44814;-83
2023/07/12 09:11:14;;;;;;;33.70;12.40;;;;;;;26.78;83.63;99572.80;179463;1263;44229;-83
2023/07/12 09:15:20;;;;;;;18.70;7.60;;;;;;;27.01;81.10;99578.11;179352;1263;57938;-83
2023/07/12 09:19:32;;;;;;;8.10;6.00;;;;;;;27.17;81.64;99585.90;179437;1264;48338;-83
2023/07/12 09:23:41;;;;;;;7.60;6.30;;;;;;;27.33;80.67;99585.71;179892;1264;44406;-83
2023/07/12 09:27:48;;;;;;;8.40;5.90;;;;;;;27.50;80.56;99590.90;179218;1263;45973;-83
2023/07/12 09:31:59;;;;;;;11.90;6.80;;;;;;;27.62;78.66;99599.13;179291;1264;43712;-83
2023/07/12 09:36:05;;;;;;;19.50;6.90;;;;;;;27.72;77.25;99603.71;179764;1263;58614;-83
2023/07/12 09:40:16;;;;;;;10.10;6.60;;;;;;;27.91;77.65;99605.77;179429;1264;46005;-83
2023/07/12 09:44:21;;;;;;;7.70;6.80;;;;;;;28.15;76.62;99603.21;179609;1265;45755;-83
2023/07/12 09:49:11;;;;;;;24.00;7.60;;;;;;;28.27;77.33;99599.29;179426;1264;46032;-83
2023/07/12 09:53:41;;;;;;;7.70;6.00;;;;;;;28.57;77.84;99598.86;178855;1274;43527;-83
2023/07/12 09:57:53;;;;;;;8.40;5.70;;;;;;;28.91;76.02;99598.73;178647;1272;59316;-83
2023/07/12 10:02:35;;;;;;;6.30;5.00;;;;;;;29.05;73.44;99594.31;178853;1262;46030;-89
2023/07/12 10:06:45;;;;;;;6.80;5.10;;;;;;;29.14;74.10;99591.63;178058;1262;46110;-88
2023/07/12 10:11:07;;;;;;;11.20;5.90;;;;;;;29.29;73.06;99593.31;178278;1260;46186;-88
2023/07/12 10:15:14;;;;;;;10.90;6.20;;;;;;;29.60;74.10;99593.77;178061;1260;46562;-89
2023/07/12 10:19:24;;;;;;;9.60;6.60;;;;;;;30.01;71.36;99595.19;178049;1261;59553;-88
2023/07/12 10:23:41;;;;;;;13.30;7.10;;;;;;;30.32;69.52;99593.35;179799;1262;45960;-83
2023/07/12 10:27:55;;;;;;;86.90;18.60;;;;;;;30.61;66.70;99580.99;180151;1260;46077;-83
2023/07/12 10:32:01;;;;;;;7.50;5.30;;;;;;;30.78;66.68;99572.73;180090;1263;46046;-83
2023/07/12 10:36:16;;;;;;;9.50;5.10;;;;;;;30.85;65.79;99574.42;180046;1263;43924;-83
2023/07/12 10:40:23;;;;;;;;;;;;;;;31.09;65.38;99564.63;179980;1265;58238;-83
2023/07/12 10:44:34;;;;;;;7.10;3.90;;;;;;;31.39;63.93;99555.50;180088;1260;44238;-83
2023/07/12 10:48:45;;;;;;;4.20;3.80;;;;;;;31.61;61.90;99548.28;180064;1263;45950;-84
2023/07/12 10:53:14;;;;;;;4.20;3.80;;;;;;;31.65;60.19;99552.10;180120;1260;44354;-83
2023/07/12 10:57:50;;;;;;;3.70;2.70;;;;;;;31.77;59.82;99538.40;180288;1260;44545;-83
2023/07/12 11:02:06;;;;;;;17.90;5.10;;;;;;;31.91;61.70;99526.38;180202;1260;58341;-84
2023/07/12 11:06:26;;;;;;;8.30;2.90;;;;;;;32.06;58.42;99522.35;180161;1260;46567;-83
2023/07/12 11:10:36;;;;;;;8.30;4.00;;;;;;;32.12;59.89;99527.46;179922;1262;44681;-84
2023/07/12 11:14:43;;;;;;;10.80;3.90;;;;;;;32.04;59.32;99521.38;180363;1262;43764;-83
2023/07/12 11:18:56;;;;;;;183.00;44.60;;;;;;;31.97;60.05;99521.66;180173;1262;44529;-83
2023/07/12 11:23:05;;;;;;;5.90;3.00;;;;;;;31.91;60.62;99520.39;180226;1260;59352;-83
2023/07/12 11:27:27;;;;;;;3.40;2.90;;;;;;;31.75;59.40;99522.69;179908;1260;43970;-87
2023/07/12 11:31:32;;;;;;;4.20;2.30;;;;;;;31.58;59.79;99516.59;178731;1262;45159;-89
2023/07/12 11:35:51;;;;;;;3.80;2.30;;;;;;;31.46;59.96;99516.50;178992;1262;46056;-89
2023/07/12 11:39:54;;;;;;;5.00;1.70;;;;;;;31.31;58.72;99514.51;178682;1262;45900;-88
2023/07/12 11:44:06;;;;;;;5.40;2.60;;;;;;;31.19;58.12;99517.86;178544;1262;61110;-89
2023/07/12 11:48:13;;;;;;;2.60;1.50;;;;;;;31.05;57.20;99524.27;179127;1262;46015;-89
2023/07/12 11:52:17;;;;;;;2.40;1.70;;;;;;;31.02;56.43;99524.17;178826;1264;45986;-89
2023/07/12 11:56:21;;;;;;;2.00;1.40;;;;;;;31.02;55.86;99522.20;179936;1262;45972;-83
2023/07/12 12:00:29;;;;;;;4.50;1.70;;;;;;;31.15;55.08;99519.11;179808;1263;44096;-83
2023/07/12 12:04:32;;;;;;;4.40;1.50;;;;;;;31.28;55.76;99520.77;179898;1263;58556;-83
2023/07/12 12:08:38;;;;;;;4.00;2.10;;;;;;;31.52;56.63;99513.93;179852;1263;46053;-83
2023/07/12 12:12:46;;;;;;;2.90;1.50;;;;;;;31.87;56.36;99517.60;179831;1263;44503;-84
2023/07/12 12:16:53;;;;;;;5.50;1.20;;;;;;;32.25;55.47;99519.94;179689;1264;44099;-84
2023/07/12 12:21:14;;;;;;;3.80;1.80;;;;;;;32.57;54.22;99518.30;180002;1262;44498;-84
2023/07/12 12:25:24;;;;;;;5.00;1.40;;;;;;;32.61;53.10;99510.22;179816;1264;61105;-83
2023/07/12 12:29:29;;;;;;;3.80;1.70;;;;;;;32.76;52.75;99512.81;179849;1264;44860;-84
2023/07/12 12:33:34;;;;;;;169.60;24.10;;;;;;;32.56;51.80;99521.23;179973;1262;46036;-84
2023/07/12 12:37:40;;;;;;;14.00;4.10;;;;;;;32.34;52.13;99522.11;179798;1263;45999;-84
2023/07/12 12:41:53;;;;;;;7.60;2.70;;;;;;;32.15;53.72;99515.02;180206;1263;43836;-84
2023/07/12 12:45:58;;;;;;;5.10;2.40;;;;;;;32.38;52.98;99513.55;179994;1264;58254;-84
2023/07/12 12:50:18;;;;;;;2.10;1.90;;;;;;;32.60;52.43;99510.85;179860;1264;45242;-84
2023/07/12 12:54:26;;;;;;;2.20;1.40;;;;;;;32.48;52.91;99518.89;179939;1262;44875;-84
2023/07/12 12:58:31;;;;;;;2.70;1.90;;;;;;;32.35;54.22;99508.45;179646;1261;44015;-90
2023/07/12 13:02:50;;;;;;;3.30;2.40;;;;;;;32.44;54.79;99504.92;178572;1264;46029;-90
2023/07/12 13:06:57;;;;;;;3.80;3.00;;;;;;;32.70;53.40;99497.68;178301;1264;59555;-90
2023/07/12 13:11:05;;;;;;;11.20;3.60;;;;;;;32.85;53.26;99499.39;178569;1264;45986;-88
2023/07/12 13:19:50;;;;;;;13.50;4.20;;;;;;;32.80;52.62;99494.70;173982;1267;44133;-64
2023/07/12 13:23:54;;;;;;;2.70;2.40;;;;;;;32.99;53.61;99488.89;179910;1264;45338;-63
2023/07/12 13:28:00;;;;;;;4.20;2.60;;;;;;;33.23;53.90;99483.54;180081;1265;58390;-62
2023/07/12 13:32:10;;;;;;;8.40;2.60;;;;;;;33.37;53.03;99468.17;180042;1265;46044;-63
2023/07/12 13:36:33;;;;;;;4.30;2.40;;;;;;;33.27;52.60;99477.58;179846;1265;45039;-62
2023/07/12 13:40:36;;;;;;;200.70;40.00;;;;;;;33.17;54.03;99487.20;179742;1265;44771;-62
2023/07/12 13:44:43;;;;;;;7.50;3.20;;;;;;;33.03;53.57;99495.10;179819;1265;43760;-61
2023/07/12 13:48:51;;;;;;;3.40;2.70;;;;;;;32.67;53.50;99505.31;179672;1267;58300;-62
2023/07/12 13:52:54;;;;;;;4.30;3.00;;;;;;;32.22;54.07;99502.45;179445;1267;46194;-63
2023/07/12 13:57:03;;;;;;;6.70;2.40;;;;;;;31.92;55.20;99489.91;179541;1267;43859;-62
2023/07/12 14:01:20;;;;;;;3.90;2.60;;;;;;;31.44;56.66;99512.93;179754;1267;43630;-62
2023/07/12 14:05:31;;;;;;;6.30;3.90;;;;;;;30.96;57.77;99532.21;179563;1264;43524;-62
2023/07/12 14:09:38;;;;;;;3.10;2.90;;;;;;;30.72;58.65;99519.35;179767;1265;58076;-61
2023/07/12 14:13:54;;;;;;;4.50;2.80;;;;;;;30.54;59.37;99530.02;179761;1265;44601;-61
2023/07/12 14:18:11;;;;;;;5.30;2.90;;;;;;;30.34;60.23;99544.04;179720;1265;43798;-61
2023/07/12 14:22:26;;;;;;;5.50;2.90;;;;;;;30.13;61.67;99542.63;179780;1265;45928;-61
2023/07/12 14:26:29;;;;;;;5.10;3.30;;;;;;;30.01;63.11;99541.61;179939;1264;43567;-61
2023/07/12 14:30:32;;;;;;;3.20;2.70;;;;;;;29.96;63.69;99534.52;179717;1267;58236;-61
2023/07/12 14:34:39;;;;;;;5.50;3.20;;;;;;;29.85;64.30;99522.41;179694;1267;44756;-61
2023/07/12 14:38:44;;;;;;;5.00;3.40;;;;;;;29.75;64.48;99521.20;179747;1265;43608;-61
2023/07/12 14:42:49;;;;;;;4.60;2.40;;;;;;;29.82;64.70;99524.48;179713;1265;44039;-60
2023/07/12 14:46:52;;;;;;;3.40;3.10;;;;;;;29.97;65.11;99525.48;179863;1265;43574;-61
2023/07/12 14:50:56;;;;;;;4.90;2.50;;;;;;;30.17;66.26;99525.34;179715;1265;58450;-61
2023/07/12 14:55:20;;;;;;;85.10;13.50;;;;;;;30.65;65.72;99525.38;179773;1265;44057;-61
2023/07/12 14:59:24;;;;;;;3.50;2.90;;;;;;;31.04;65.32;99523.89;179791;1267;45976;-61
2023/07/12 15:03:29;;;;;;;4.40;2.50;;;;;;;31.08;66.10;99522.77;179652;1266;46046;-61
2023/07/12 15:07:40;;;;;;;5.50;2.60;;;;;;;31.28;66.71;99504.52;179798;1265;43581;-60
2023/07/12 15:11:48;;;;;;;6.30;3.00;;;;;;;31.48;65.12;99500.55;179851;1265;59170;-61
2023/07/12 15:15:52;;;;;;;3.20;2.50;;;;;;;31.56;63.49;99505.11;179618;1266;43729;-62
2023/07/12 15:19:55;;;;;;;4.00;2.80;;;;;;;31.71;63.37;99504.45;179544;1265;44343;-62
2023/07/12 15:23:58;;;;;;;8.90;2.80;;;;;;;31.84;62.24;99508.96;179878;1265;44890;-61
2023/07/12 15:28:34;;;;;;;5.70;4.40;;;;;;;31.98;61.95;99511.15;179915;1265;45914;-61
2023/07/12 15:32:38;;;;;;;5.90;2.90;;;;;;;32.12;60.32;99509.98;179878;1265;58330;-61
2023/07/12 15:36:45;;;;;;;7.00;3.10;;;;;;;32.07;61.34;99517.56;179998;1265;45186;-61
2023/07/12 15:40:55;;;;;;;6.60;3.30;;;;;;;31.94;61.97;99522.95;179811;1265;43671;-61
2023/07/12 15:44:59;;;;;;;4.70;2.40;;;;;;;31.83;62.22;99527.21;179731;1265;45990;-61
2023/07/12 15:49:02;;;;;;;4.80;3.60;;;;;;;31.89;62.95;99531.73;179787;1266;43530;-62
2023/07/12 15:53:33;;;;;;;3.00;2.40;;;;;;;31.90;61.37;99530.23;179816;1265;60070;-63
2023/07/12 15:57:44;;;;;;;4.40;2.70;;;;;;;31.98;60.50;99532.39;179795;1265;45944;-63
2023/07/12 16:01:56;;;;;;;5.80;2.90;;;;;;;32.23;61.75;99538.73;179678;1266;43533;-63
2023/07/12 16:06:00;;;;;;;6.50;2.50;;;;;;;32.49;59.58;99534.07;179897;1265;44077;-63
2023/07/12 16:10:08;;;;;;;4.40;2.00;;;;;;;32.64;59.97;99532.33;179726;1265;46014;-63
2023/07/12 16:14:21;;;;;;;6.80;2.30;;;;;;;32.70;59.95;99526.42;179906;1265;58763;-63
2023/07/12 16:18:29;;;;;;;4.00;2.60;;;;;;;32.69;59.78;99514.83;179916;1265;46005;-64
2023/07/12 16:22:40;;;;;;;5.20;2.10;;;;;;;32.60;60.22;99514.64;179873;1266;44645;-63
2023/07/12 16:26:45;;;;;;;3.20;2.30;;;;;;;32.54;60.38;99525.89;179868;1265;44528;-63
2023/07/12 16:30:49;;;;;;;3.40;2.40;;;;;;;32.53;59.86;99526.18;179923;1267;44517;-63
2023/07/12 16:34:53;;;;;;;3.60;2.50;;;;;;;32.54;61.00;99524.72;179894;1265;57961;-63
2023/07/12 16:38:57;;;;;;;3.70;2.40;;;;;;;32.50;61.84;99535.35;179806;1267;45041;-64
2023/07/12 16:43:04;;;;;;;10.00;4.50;;;;;;;32.26;63.50;99536.81;179848;1265;43810;-63
2023/07/12 16:47:08;;;;;;;5.80;3.00;;;;;;;32.08;63.15;99538.84;179768;1265;45931;-63
2023/07/12 16:51:47;;;;;;;15.60;5.20;;;;;;;31.84;63.04;99543.73;179782;1265;43557;-63
2023/07/12 16:55:50;;;;;;;5.10;3.00;;;;;;;31.50;63.91;99544.56;180026;1265;59277;-63
2023/07/12 16:59:57;;;;;;;26.90;7.50;;;;;;;31.21;65.24;99555.58;179960;1265;46257;-62
2023/07/12 17:04:05;;;;;;;6.70;2.60;;;;;;;30.91;66.24;99561.11;179986;1265;43545;-62
2023/07/12 17:08:17;;;;;;;5.20;3.30;;;;;;;30.64;66.60;99562.77;179894;1266;43606;-62
2023/07/12 17:16:57;;;;;;;3.90;2.80;;;;;;;30.33;67.93;99558.46;179533;1265;58635;-61
2023/07/12 17:21:01;;;;;;;5.00;2.80;;;;;;;30.18;68.59;99561.11;179571;1265;46059;-61
2023/07/12 17:25:04;;;;;;;3.50;2.60;;;;;;;30.03;70.18;99569.20;179875;1265;46015;-61
2023/07/12 17:29:08;;;;;;;75.70;15.40;;;;;;;29.91;71.50;99570.05;179877;1265;46002;-61
2023/07/12 17:33:23;;;;;;;10.10;3.30;;;;;;;29.80;72.54;99572.61;179887;1265;45985;-61
2023/07/12 17:37:31;;;;;;;3.80;2.60;;;;;;;29.66;73.39;99581.36;179992;1266;58952;-60
2023/07/12 17:42:00;;;;;;;3.40;3.10;;;;;;;29.51;74.36;99578.97;180280;1265;45986;-61
2023/07/12 17:46:04;;;;;;;20.50;5.60;;;;;;;29.38;75.23;99584.71;179952;1266;45985;-61
2023/07/12 17:50:08;;;;;;;5.20;2.90;;;;;;;29.26;76.11;99588.48;179828;1265;45107;-61
2023/07/12 17:54:17;;;;;;;6.20;2.50;;;;;;;29.14;76.61;99599.66;179711;1266;43548;-60
2023/07/12 17:58:26;;;;;;;6.00;3.30;;;;;;;29.03;77.20;99600.11;179676;1269;58398;-60
2023/07/12 18:02:34;;;;;;;51.20;14.40;;;;;;;28.97;77.48;99610.69;179579;1266;44344;-61
2023/07/12 18:06:42;;;;;;;13.80;5.90;;;;;;;28.91;78.31;99610.13;179576;1265;43826;-61
2023/07/12 18:10:55;;;;;;;5.20;2.00;;;;;;;28.81;78.17;99615.73;179696;1267;43519;-60
2023/07/12 18:15:03;;;;;;;5.60;3.40;;;;;;;28.64;78.82;99616.20;180250;1264;43766;-60
2023/07/12 18:19:06;;;;;;;3.80;3.00;;;;;;;28.46;79.22;99615.41;179842;1262;58147;-83
2023/07/12 18:23:18;;;;;;;6.90;3.80;;;;;;;28.27;79.39;99620.02;179808;1262;46041;-83
2023/07/12 18:27:21;;;;;;;3.90;3.00;;;;;;;28.06;80.75;99621.98;179604;1264;43839;-83
2023/07/12 18:31:33;;;;;;;5.70;3.30;;;;;;;27.83;81.51;99619.91;179822;1261;45893;-83
2023/07/12 18:35:37;;;;;;;4.30;2.90;;;;;;;27.63;82.60;99621.54;179643;1262;46019;-83
2023/07/12 18:39:46;;;;;;;4.60;3.20;;;;;;;27.51;83.09;99616.84;179719;1263;59466;-83
2023/07/12 18:43:52;;;;;;;4.80;2.80;;;;;;;27.39;83.13;99606.15;179616;1266;45946;-83
2023/07/12 18:47:57;;;;;;;8.30;3.60;;;;;;;27.30;83.47;99612.10;179616;1262;44482;-83
2023/07/12 18:52:00;;;;;;;6.10;3.60;;;;;;;27.17;83.56;99614.62;179674;1262;44638;-83
2023/07/12 18:56:13;;;;;;;7.20;4.00;;;;;;;26.99;83.88;99622.19;179522;1263;44750;-83
2023/07/12 19:00:16;;;;;;;5.10;3.00;;;;;;;26.82;84.35;99628.30;179538;1264;58591;-83
2023/07/12 19:04:20;;;;;;;5.20;3.80;;;;;;;26.67;84.17;99633.34;179520;1262;45995;-84
2023/07/12 19:08:24;;;;;;;10.20;3.80;;;;;;;26.52;84.75;99637.86;180013;1262;46029;-84
2023/07/12 19:12:27;;;;;;;14.50;4.40;;;;;;;26.38;85.04;99641.83;179338;1262;44021;-84
2023/07/12 19:16:33;;;;;;;14.30;5.50;;;;;;;26.23;85.91;99653.84;179717;1262;44738;-83